Time;durP1;ratioP1;P1;durP2;ratioP2;P2;SDS_P1;SDS_P2;PMS_P1;PMS_P2;Temp;Humidity;BMP_temperature;BMP_pressure;BME280_temperature;BME280_humidity;BME280_pressure;Samples;Min_cycle;Max_cycle;Signal;HPM_P1;HPM_P2
2022/12/29 00:01:49;;;;;;;4.93;2.20;;;7.80;1.00;;;;;;5001907;28;20239;-84
2022/12/29 00:04:16;;;;;;;3.40;1.98;;;7.80;1.00;;;;;;5000190;28;20240;-84
2022/12/29 00:06:48;;;;;;;4.20;2.25;;;7.80;1.00;;;;;;5014473;28;20236;-84
2022/12/29 00:09:17;;;;;;;4.90;2.90;;;7.80;1.00;;;;;;5009545;28;20270;-85
2022/12/29 00:11:49;;;;;;;3.60;1.95;;;7.80;1.00;;;;;;5014773;28;20243;-80
2022/12/29 00:17:06;;;;;;;3.83;2.05;;;7.80;1.00;;;;;;5026046;28;20241;-82
2022/12/29 00:36:37;;;;;;;5.37;2.43;;;7.90;1.00;;;;;;4956304;28;21160;-81
2022/12/29 00:44:50;;;;;;;4.20;2.05;;;8.10;1.00;;;;;;5016380;28;21869;-84
2022/12/29 00:47:18;;;;;;;4.07;2.20;;;8.10;1.00;;;;;;5010728;28;20244;-84
2022/12/29 00:49:44;;;;;;;4.88;1.88;;;8.10;1.00;;;;;;5014161;28;20241;-85
2022/12/29 00:52:13;;;;;;;4.20;2.00;;;8.20;1.00;;;;;;4999668;28;20699;-85
2022/12/29 00:54:41;;;;;;;3.95;2.10;;;8.20;1.00;;;;;;5010164;28;20467;-84
2022/12/29 00:57:12;;;;;;;4.90;2.25;;;8.20;1.00;;;;;;5019013;28;20238;-85
2022/12/29 00:59:40;;;;;;;3.60;2.00;;;8.20;1.00;;;;;;5013583;28;20252;-84
2022/12/29 01:02:07;;;;;;;4.65;2.40;;;8.20;1.00;;;;;;5014131;28;20247;-84
2022/12/29 01:04:36;;;;;;;3.63;1.60;;;8.20;1.00;;;;;;5013405;28;20235;-84
2022/12/29 01:07:03;;;;;;;4.60;1.70;;;8.20;1.00;;;;;;5007594;28;20705;-85
2022/12/29 01:12:16;;;;;;;4.37;1.90;;;8.20;1.00;;;;;;5007535;28;20279;-85
2022/12/29 01:14:45;;;;;;;4.50;2.10;;;8.20;1.00;;;;;;5016231;28;20908;-85
2022/12/29 01:17:12;;;;;;;4.07;2.08;;;8.20;1.00;;;;;;5010517;28;20245;-85
2022/12/29 01:19:41;;;;;;;4.43;2.30;;;8.20;1.00;;;;;;5010897;28;20239;-83
2022/12/29 01:22:10;;;;;;;4.13;2.30;;;8.20;1.00;;;;;;5017111;28;20230;-83
2022/12/29 01:24:37;;;;;;;4.30;1.92;;;8.20;1.00;;;;;;5025863;28;20239;-81
2022/12/29 01:27:09;;;;;;;4.82;2.28;;;8.20;1.00;;;;;;5014248;28;20326;-81
2022/12/29 01:29:36;;;;;;;4.35;2.03;;;8.20;1.00;;;;;;5020169;28;20722;-80
2022/12/29 01:32:06;;;;;;;3.23;1.80;;;8.30;1.00;;;;;;5016008;28;20230;-86
2022/12/29 01:34:33;;;;;;;4.10;1.80;;;8.30;1.00;;;;;;5019245;28;20421;-85
2022/12/29 01:37:02;;;;;;;5.07;2.33;;;8.30;1.00;;;;;;5013793;28;20470;-81
2022/12/29 01:39:30;;;;;;;3.78;1.98;;;8.40;1.00;;;;;;5019460;28;20247;-84
2022/12/29 01:41:58;;;;;;;3.92;1.95;;;8.40;1.00;;;;;;5007833;28;21020;-83
2022/12/29 01:44:54;;;;;;;6.30;2.13;;;8.40;1.00;;;;;;5016465;28;20229;-84
2022/12/29 01:47:35;;;;;;;3.30;1.73;;;8.40;1.00;;;;;;5015246;28;20235;-81
2022/12/29 01:50:09;;;;;;;4.80;2.10;;;8.40;1.00;;;;;;5018222;28;20222;-82
2022/12/29 01:52:42;;;;;;;3.60;1.93;;;8.40;1.00;;;;;;5025499;28;20447;-88
2022/12/29 01:55:12;;;;;;;5.80;2.10;;;8.30;1.00;;;;;;5022584;28;20411;-84
2022/12/29 01:57:49;;;;;;;4.60;1.80;;;8.30;1.00;;;;;;5020550;28;20470;-85
2022/12/29 02:00:18;;;;;;;4.53;2.63;;;8.20;1.00;;;;;;5025943;28;21219;-84
2022/12/29 02:02:52;;;;;;;3.55;1.70;;;8.20;1.00;;;;;;5023183;28;20424;-79
2022/12/29 02:05:33;;;;;;;3.37;1.70;;;8.20;1.00;;;;;;5011732;28;20297;-80
2022/12/29 02:08:02;;;;;;;4.07;2.00;;;8.10;1.00;;;;;;5025813;28;20465;-84
2022/12/29 02:10:33;;;;;;;3.67;1.95;;;8.10;1.00;;;;;;5026780;28;20437;-84
2022/12/29 02:13:01;;;;;;;3.63;1.98;;;8.00;1.00;;;;;;5013783;28;20242;-83
2022/12/29 02:15:50;;;;;;;4.90;2.30;;;8.00;1.00;;;;;;5020324;28;20252;-82
2022/12/29 02:18:33;;;;;;;4.63;2.05;;;8.00;1.00;;;;;;5018946;28;20455;-79
2022/12/29 02:21:48;;;;;;;4.90;2.17;;;8.10;1.00;;;;;;5022064;28;20351;-87
2022/12/29 02:24:58;;;;;;;5.50;2.30;;;8.00;1.00;;;;;;5026591;28;20430;-81
2022/12/29 02:27:51;;;;;;;4.23;1.90;;;8.00;1.00;;;;;;5019131;28;20466;-87
2022/12/29 02:30:41;;;;;;;7.55;2.35;;;8.00;1.00;;;;;;5013517;28;20972;-85
2022/12/29 02:33:16;;;;;;;4.25;2.50;;;8.00;1.00;;;;;;5019680;28;20239;-84
2022/12/29 02:35:53;;;;;;;3.50;2.00;;;8.00;1.00;;;;;;5017711;28;20297;-84
2022/12/29 02:38:35;;;;;;;3.93;2.17;;;8.00;1.00;;;;;;5014511;28;20235;-85
2022/12/29 02:41:43;;;;;;;5.17;2.70;;;8.00;1.00;;;;;;5024879;28;20467;-87
2022/12/29 02:44:25;;;;;;;3.80;1.80;;;8.00;1.00;;;;;;5001409;28;20418;-84
2022/12/29 02:47:23;;;;;;;3.90;2.10;;;8.00;1.00;;;;;;5016261;28;20494;-84
2022/12/29 02:50:13;;;;;;;3.67;2.00;;;8.00;1.00;;;;;;4985907;28;20411;-84
2022/12/29 02:53:05;;;;;;;4.13;2.20;;;8.00;1.00;;;;;;5022185;28;20454;-79
2022/12/29 02:55:35;;;;;;;5.03;2.08;;;8.10;1.00;;;;;;5007865;28;20447;-80
2022/12/29 02:58:24;;;;;;;4.32;2.17;;;8.00;1.00;;;;;;5015452;28;20248;-81
2022/12/29 03:01:04;;;;;;;3.90;2.00;;;8.10;1.00;;;;;;5010842;28;20266;-82
2022/12/29 03:03:54;;;;;;;4.90;2.10;;;8.20;1.00;;;;;;5021020;28;20415;-86
2022/12/29 03:06:51;;;;;;;4.00;2.07;;;8.20;1.00;;;;;;4996400;28;20453;-80
2022/12/29 03:09:47;;;;;;;;;;;;;;;;;;;;;
2022/12/29 03:18:16;;;;;;;3.90;1.70;;;8.50;1.00;;;;;;5016854;28;20962;-86
2022/12/29 03:20:56;;;;;;;4.23;1.80;;;8.60;1.00;;;;;;5002130;28;20472;-86
2022/12/29 03:23:28;;;;;;;3.90;1.90;;;8.80;1.00;;;;;;5025812;28;20546;-87
2022/12/29 03:25:58;;;;;;;3.35;1.65;;;8.90;1.00;;;;;;5016648;28;21240;-84
2022/12/29 03:28:32;;;;;;;3.90;1.75;;;9.00;1.00;;;;;;5017283;28;20298;-87
2022/12/29 03:31:09;;;;;;;3.90;1.87;;;9.10;1.00;;;;;;5015701;28;20306;-87
2022/12/29 03:33:39;;;;;;;3.77;1.80;;;9.30;1.00;;;;;;5023334;28;20468;-85
2022/12/29 03:36:12;;;;;;;4.20;1.93;;;9.40;1.00;;;;;;5019799;28;20478;-87
2022/12/29 03:38:48;;;;;;;5.03;1.97;;;9.40;1.00;;;;;;5019055;28;20454;-81
2022/12/29 03:41:25;;;;;;;6.23;2.30;;;9.40;1.00;;;;;;5019158;28;20500;-84
2022/12/29 03:43:52;;;;;;;4.80;2.20;;;9.50;1.00;;;;;;5016829;28;20502;-85
2022/12/29 03:46:23;;;;;;;4.10;1.70;;;9.50;1.00;;;;;;5009734;28;20481;-85
2022/12/29 03:48:50;;;;;;;5.17;1.97;;;9.60;1.00;;;;;;5014730;28;20593;-84
2022/12/29 03:51:19;;;;;;;4.03;2.03;;;9.70;1.00;;;;;;5015775;28;21279;-84
2022/12/29 03:53:49;;;;;;;3.83;1.47;;;9.70;1.00;;;;;;5019052;28;20992;-85
2022/12/29 03:56:18;;;;;;;3.83;1.60;;;9.60;1.00;;;;;;5012330;28;20463;-85
2022/12/29 03:58:45;;;;;;;6.10;2.23;;;9.60;1.00;;;;;;5012139;28;20557;-84
2022/12/29 04:01:12;;;;;;;4.83;2.20;;;9.70;1.00;;;;;;5012131;28;20552;-84
2022/12/29 04:03:42;;;;;;;4.37;1.80;;;9.70;1.00;;;;;;5022164;28;20450;-85
2022/12/29 04:06:10;;;;;;;4.63;1.70;;;9.70;1.00;;;;;;5020221;28;20508;-82
2022/12/29 04:08:42;;;;;;;6.27;1.53;;;9.70;1.00;;;;;;5019180;28;21005;-85
2022/12/29 04:11:10;;;;;;;4.47;2.07;;;9.70;1.00;;;;;;5011998;28;20493;-79
2022/12/29 04:13:48;;;;;;;4.00;1.87;;;9.80;1.00;;;;;;5004831;28;21324;-85
2022/12/29 04:16:20;;;;;;;4.80;1.53;;;9.80;1.00;;;;;;5016489;28;20458;-88
2022/12/29 04:18:53;;;;;;;4.47;1.70;;;9.80;1.00;;;;;;5024545;28;20507;-86
2022/12/29 04:21:20;;;;;;;5.50;1.93;;;9.80;1.00;;;;;;5014511;28;20422;-84
2022/12/29 04:23:52;;;;;;;4.23;2.17;;;9.80;1.00;;;;;;5023122;28;20407;-86
2022/12/29 04:26:20;;;;;;;3.97;1.60;;;9.90;1.00;;;;;;5021887;28;20430;-82
2022/12/29 04:28:51;;;;;;;4.70;2.23;;;9.90;1.00;;;;;;5013822;28;20428;-88
2022/12/29 04:31:23;;;;;;;3.63;1.60;;;9.90;1.00;;;;;;5012031;28;20447;-83
2022/12/29 04:33:50;;;;;;;3.60;1.77;;;9.90;1.00;;;;;;5016176;28;20423;-86
2022/12/29 04:36:19;;;;;;;3.50;1.73;;;9.90;1.00;;;;;;5006721;28;20468;-84
2022/12/29 04:38:51;;;;;;;5.20;1.83;;;9.90;1.00;;;;;;5015894;28;20450;-85
2022/12/29 04:41:20;;;;;;;4.20;2.07;;;9.90;1.00;;;;;;5015707;28;20426;-86
2022/12/29 04:44:21;;;;;;;3.93;2.20;;;10.00;1.00;;;;;;5014390;28;20418;-91
2022/12/29 04:46:50;;;;;;;4.37;1.70;;;9.90;1.00;;;;;;4970877;28;20440;-82
2022/12/29 04:49:21;;;;;;;4.70;2.30;;;10.00;1.00;;;;;;5023242;28;20414;-90
2022/12/29 04:51:51;;;;;;;4.30;2.20;;;10.00;1.00;;;;;;5015007;28;20453;-84
2022/12/29 04:54:30;;;;;;;4.43;1.77;;;9.90;1.00;;;;;;5001377;28;20461;-92
2022/12/29 04:57:02;;;;;;;4.23;1.80;;;9.90;1.00;;;;;;5002787;28;20482;-85
2022/12/29 04:59:52;;;;;;;;;;;;;;;;;;;;;
2022/12/29 05:02:29;;;;;;;4.10;1.70;;;9.90;1.00;;;;;;5017759;28;49296;-84
2022/12/29 05:08:22;;;;;;;3.97;2.10;;;9.80;1.00;;;;;;4978306;28;20421;-91
2022/12/29 05:11:01;;;;;;;4.60;1.93;;;9.90;1.00;;;;;;5008961;28;20466;-87
2022/12/29 05:14:12;;;;;;;4.23;2.10;;;9.90;1.00;;;;;;5017100;28;20419;-90
2022/12/29 05:16:43;;;;;;;3.90;1.80;;;9.90;1.00;;;;;;4976311;28;20515;-89
2022/12/29 05:19:43;;;;;;;4.90;2.13;;;9.90;1.00;;;;;;5020439;28;20439;-91
2022/12/29 05:22:14;;;;;;;4.63;2.47;;;10.00;1.00;;;;;;4996384;28;21361;-88
2022/12/29 05:24:45;;;;;;;4.10;2.03;;;10.00;1.00;;;;;;5021694;28;20573;-85
2022/12/29 05:27:23;;;;;;;4.90;2.07;;;10.00;1.00;;;;;;5018231;28;20496;-83
2022/12/29 05:30:10;;;;;;;5.07;2.13;;;10.10;1.00;;;;;;5019813;28;20471;-83
2022/12/29 05:33:11;;;;;;;5.20;2.47;;;10.10;1.00;;;;;;5023599;28;20441;-81
2022/12/29 05:35:55;;;;;;;;;;;;;;;;;;;;;
2022/12/29 05:38:32;;;;;;;4.23;1.73;;;10.10;1.00;;;;;;4996123;28;21001;-83
2022/12/29 05:41:00;;;;;;;7.23;2.00;;;10.20;1.00;;;;;;5019759;28;20447;-83
2022/12/29 05:43:32;;;;;;;4.33;2.40;;;10.20;1.00;;;;;;5016009;28;20444;-82
2022/12/29 05:46:03;;;;;;;4.13;1.87;;;10.30;1.00;;;;;;5022066;28;20418;-81
2022/12/29 05:48:30;;;;;;;5.40;1.93;;;10.30;1.00;;;;;;5015268;28;20461;-84
2022/12/29 05:51:00;;;;;;;3.87;1.93;;;10.30;1.00;;;;;;5014251;28;20462;-83
2022/12/29 05:53:31;;;;;;;4.57;2.23;;;10.30;1.00;;;;;;5035779;28;20466;-84
2022/12/29 05:56:02;;;;;;;3.97;1.90;;;10.40;1.00;;;;;;5007514;28;20462;-84
2022/12/29 05:58:43;;;;;;;4.47;1.70;;;10.40;1.00;;;;;;5019831;28;20470;-89
2022/12/29 06:01:12;;;;;;;4.20;1.70;;;10.40;1.00;;;;;;5000795;28;20474;-83
2022/12/29 06:03:42;;;;;;;5.70;1.83;;;10.50;1.00;;;;;;5006879;28;20426;-84
2022/12/29 06:06:11;;;;;;;5.40;2.10;;;10.50;1.00;;;;;;5013493;28;20522;-84
2022/12/29 06:08:42;;;;;;;3.60;1.53;;;10.60;1.00;;;;;;5017673;28;20431;-84
2022/12/29 06:11:09;;;;;;;4.80;2.00;;;10.60;1.00;;;;;;5013463;28;20442;-83
2022/12/29 06:13:45;;;;;;;4.03;1.97;;;10.60;1.00;;;;;;5017248;28;20438;-86
2022/12/29 06:16:12;;;;;;;4.60;2.23;;;10.70;1.00;;;;;;5012258;28;20475;-79
2022/12/29 06:18:41;;;;;;;4.93;2.00;;;10.70;1.00;;;;;;5012400;28;20405;-81
2022/12/29 06:21:08;;;;;;;4.10;1.70;;;10.70;1.00;;;;;;5012547;28;20486;-82
2022/12/29 06:23:40;;;;;;;4.97;2.00;;;10.70;1.00;;;;;;5002707;28;20423;-81
2022/12/29 06:26:07;;;;;;;3.90;1.90;;;10.80;1.00;;;;;;5010469;28;20542;-81
2022/12/29 06:28:35;;;;;;;4.77;1.70;;;10.80;1.00;;;;;;5014670;28;20542;-83
2022/12/29 06:31:04;;;;;;;4.30;2.07;;;10.80;1.00;;;;;;5008129;28;21310;-80
2022/12/29 06:33:31;;;;;;;4.30;2.40;;;10.80;1.00;;;;;;5023652;28;20448;-83
2022/12/29 06:36:03;;;;;;;3.77;1.73;;;10.80;1.00;;;;;;5011677;28;20439;-82
2022/12/29 06:38:30;;;;;;;4.57;2.10;;;10.80;1.00;;;;;;5013402;28;21154;-82
2022/12/29 06:41:02;;;;;;;4.20;2.07;;;10.80;1.00;;;;;;5016304;28;20457;-82
2022/12/29 06:43:32;;;;;;;5.13;2.10;;;10.80;1.00;;;;;;5015315;28;20493;-80
2022/12/29 06:46:04;;;;;;;4.00;1.90;;;10.80;1.00;;;;;;5016361;28;20427;-81
2022/12/29 06:48:31;;;;;;;5.83;1.90;;;10.80;1.00;;;;;;5002402;28;20460;-81
2022/12/29 06:51:01;;;;;;;6.43;4.40;;;10.70;1.00;;;;;;5023832;28;20477;-79
2022/12/29 06:53:28;;;;;;;3.70;1.60;;;10.70;1.00;;;;;;5014299;28;21210;-79
2022/12/29 06:56:01;;;;;;;4.67;2.17;;;10.80;1.00;;;;;;5015841;28;20472;-80
2022/12/29 06:58:28;;;;;;;4.23;1.73;;;10.80;1.00;;;;;;5017198;28;20489;-80
2022/12/29 07:01:06;;;;;;;4.67;1.30;;;10.80;1.00;;;;;;5017245;28;20746;-80
2022/12/29 07:03:48;;;;;;;3.90;1.90;;;10.80;1.00;;;;;;5015822;28;20451;-80
2022/12/29 07:06:15;;;;;;;4.70;1.97;;;10.80;1.00;;;;;;5014043;28;20454;-82
2022/12/29 07:08:42;;;;;;;4.70;1.50;;;10.70;1.00;;;;;;5016620;28;20453;-82
2022/12/29 07:11:09;;;;;;;3.70;1.70;;;10.60;1.00;;;;;;5017680;28;20481;-79
2022/12/29 07:13:41;;;;;;;3.90;1.67;;;10.50;1.00;;;;;;5019016;28;20423;-80
2022/12/29 07:16:09;;;;;;;4.60;1.60;;;10.50;1.00;;;;;;5014987;28;20977;-79
2022/12/29 07:18:47;;;;;;;4.50;1.60;;;10.40;1.00;;;;;;5018284;28;20420;-83
2022/12/29 07:21:20;;;;;;;5.37;1.87;;;10.40;1.00;;;;;;5017185;28;20454;-83
2022/12/29 07:23:49;;;;;;;4.20;2.10;;;10.50;1.00;;;;;;5019572;28;20427;-84
2022/12/29 07:26:24;;;;;;;5.10;2.20;;;10.40;1.00;;;;;;5016108;28;20430;-80
2022/12/29 07:28:51;;;;;;;3.93;1.73;;;10.50;1.00;;;;;;5019669;28;20517;-79
2022/12/29 07:31:23;;;;;;;3.90;1.80;;;10.50;1.00;;;;;;5019227;28;20430;-83
2022/12/29 07:33:51;;;;;;;5.20;1.57;;;10.60;1.00;;;;;;5015749;28;20466;-83
2022/12/29 07:36:21;;;;;;;4.07;1.60;;;10.60;1.00;;;;;;5018989;28;20415;-84
2022/12/29 07:38:48;;;;;;;3.50;1.77;;;10.70;1.00;;;;;;5019995;28;20474;-82
2022/12/29 07:41:19;;;;;;;4.10;1.80;;;10.70;1.00;;;;;;5012457;28;20478;-79
2022/12/29 07:43:50;;;;;;;4.10;2.20;;;10.70;1.00;;;;;;5016189;28;20464;-79
2022/12/29 07:46:20;;;;;;;6.30;1.97;;;10.70;1.00;;;;;;5005137;28;20458;-80
2022/12/29 07:48:47;;;;;;;3.70;1.43;;;10.70;1.00;;;;;;5012973;28;21188;-79
2022/12/29 07:51:21;;;;;;;3.83;1.63;;;10.80;1.00;;;;;;5007140;28;20833;-84
2022/12/29 07:53:48;;;;;;;3.97;1.60;;;10.90;1.00;;;;;;5015127;28;20455;-83
2022/12/29 07:56:25;;;;;;;4.27;1.60;;;10.90;1.00;;;;;;5008379;28;20471;-83
2022/12/29 07:58:52;;;;;;;3.40;1.70;;;11.00;1.00;;;;;;5017906;28;20549;-80
2022/12/29 08:01:23;;;;;;;5.03;1.20;;;11.00;1.00;;;;;;5003054;28;20459;-83
2022/12/29 08:03:51;;;;;;;3.87;1.70;;;11.00;1.00;;;;;;5019686;28;21006;-81
2022/12/29 08:06:27;;;;;;;4.13;1.77;;;11.00;1.00;;;;;;5012790;28;20439;-81
2022/12/29 08:08:57;;;;;;;3.97;1.67;;;11.00;1.00;;;;;;5021349;28;20544;-80
2022/12/29 08:11:25;;;;;;;4.50;1.60;;;11.10;1.00;;;;;;5005742;28;20462;-81
2022/12/29 08:13:59;;;;;;;3.83;1.43;;;11.10;1.00;;;;;;5017828;28;21186;-80
2022/12/29 08:16:28;;;;;;;8.73;2.00;;;11.10;1.00;;;;;;5016352;28;20463;-83
2022/12/29 08:19:05;;;;;;;3.43;1.50;;;11.10;1.00;;;;;;5019902;28;20416;-83
2022/12/29 08:21:47;;;;;;;4.10;2.07;;;11.20;1.00;;;;;;5018928;28;20561;-83
2022/12/29 08:24:14;;;;;;;4.43;1.73;;;11.20;1.00;;;;;;5020116;28;21330;-83
2022/12/29 08:26:43;;;;;;;4.50;1.97;;;11.30;1.00;;;;;;5020716;28;20454;-83
2022/12/29 08:29:10;;;;;;;5.00;1.97;;;11.30;1.00;;;;;;5006318;28;20442;-84
2022/12/29 08:31:43;;;;;;;4.10;1.60;;;11.30;1.00;;;;;;5030493;28;20485;-80
2022/12/29 08:34:10;;;;;;;4.00;1.60;;;11.30;1.00;;;;;;5021500;28;20464;-82
2022/12/29 08:36:42;;;;;;;3.47;1.40;;;11.20;1.00;;;;;;5020714;28;20446;-84
2022/12/29 08:39:09;;;;;;;5.60;1.77;;;11.20;1.00;;;;;;5023475;28;20459;-83
2022/12/29 08:41:43;;;;;;;3.73;1.50;;;11.20;1.00;;;;;;5016898;28;20451;-84
2022/12/29 08:44:10;;;;;;;4.50;1.70;;;11.20;1.00;;;;;;5017575;28;20455;-82
2022/12/29 08:46:41;;;;;;;3.70;1.80;;;11.20;1.00;;;;;;5021547;28;20458;-82
2022/12/29 08:49:08;;;;;;;4.60;2.10;;;11.20;1.00;;;;;;5022323;28;20438;-84
2022/12/29 08:51:41;;;;;;;6.60;1.43;;;11.20;1.00;;;;;;5018477;28;20474;-82
2022/12/29 08:54:09;;;;;;;4.63;1.40;;;11.20;1.00;;;;;;5018001;28;21235;-82
2022/12/29 08:56:44;;;;;;;4.77;1.77;;;11.10;1.00;;;;;;5016925;28;20419;-83
2022/12/29 08:59:11;;;;;;;3.43;1.27;;;11.10;1.00;;;;;;5020329;28;20906;-83
2022/12/29 09:01:44;;;;;;;5.00;1.90;;;11.10;1.00;;;;;;5020055;28;20435;-79
2022/12/29 09:04:10;;;;;;;4.53;1.50;;;11.20;1.00;;;;;;5017021;28;20466;-79
2022/12/29 09:06:38;;;;;;;5.27;1.60;;;11.30;1.00;;;;;;4998020;28;20436;-79
2022/12/29 09:09:05;;;;;;;4.43;1.63;;;11.40;1.00;;;;;;5015826;28;20463;-82
2022/12/29 09:11:39;;;;;;;4.33;1.80;;;11.40;1.00;;;;;;5016481;28;20645;-80
2022/12/29 09:14:06;;;;;;;6.47;2.33;;;11.50;1.00;;;;;;5015574;28;20454;-81
2022/12/29 09:19:20;;;;;;;4.77;1.70;;;11.70;1.00;;;;;;4981805;28;21269;-84
2022/12/29 09:21:47;;;;;;;3.90;1.60;;;11.60;1.00;;;;;;5018290;28;20561;-79
2022/12/29 09:24:16;;;;;;;3.83;1.60;;;11.70;1.00;;;;;;5019847;28;20443;-84
2022/12/29 09:26:45;;;;;;;4.00;1.67;;;11.80;1.00;;;;;;5022492;28;20424;-82
2022/12/29 09:29:12;;;;;;;4.50;1.47;;;11.90;1.00;;;;;;5020247;28;21308;-79
2022/12/29 09:31:41;;;;;;;4.43;2.10;;;12.00;1.00;;;;;;5017820;28;20469;-82
2022/12/29 09:34:11;;;;;;;4.33;1.80;;;12.10;1.00;;;;;;5016844;28;20431;-83
2022/12/29 09:36:42;;;;;;;3.90;1.60;;;12.10;1.00;;;;;;5011801;28;20439;-82
2022/12/29 09:39:10;;;;;;;4.43;2.00;;;12.20;1.00;;;;;;5016849;28;20439;-82
2022/12/29 09:41:54;;;;;;;4.10;1.40;;;12.20;1.00;;;;;;5012367;28;20447;-80
2022/12/29 09:44:33;;;;;;;3.90;1.40;;;12.10;1.00;;;;;;5019889;28;20447;-84
2022/12/29 09:47:03;;;;;;;4.20;1.60;;;12.10;1.00;;;;;;5019061;28;20502;-79
2022/12/29 09:49:42;;;;;;;9.30;2.13;;;12.10;1.00;;;;;;5016638;28;20442;-81
2022/12/29 09:52:25;;;;;;;5.80;1.87;;;12.10;1.00;;;;;;5017728;28;20548;-79
2022/12/29 09:55:03;;;;;;;4.43;1.70;;;12.20;1.00;;;;;;5015780;28;20441;-81
2022/12/29 09:57:40;;;;;;;5.10;1.70;;;12.20;1.00;;;;;;5012599;28;20431;-84
2022/12/29 10:00:19;;;;;;;4.00;1.73;;;12.60;1.00;;;;;;5020579;28;20455;-83
2022/12/29 10:02:51;;;;;;;5.33;1.50;;;13.10;1.00;;;;;;5015499;28;20451;-82
2022/12/29 10:05:28;;;;;;;4.60;1.40;;;13.20;1.00;;;;;;5019814;28;20412;-84
2022/12/29 10:08:05;;;;;;;4.67;1.57;;;13.20;1.00;;;;;;5020810;28;20434;-82
2022/12/29 10:10:42;;;;;;;5.10;1.97;;;13.10;1.00;;;;;;5017138;28;20432;-84
2022/12/29 10:13:26;;;;;;;4.90;1.50;;;13.10;1.00;;;;;;5015375;28;20454;-84
2022/12/29 10:16:05;;;;;;;5.10;1.27;;;13.10;1.00;;;;;;5020446;28;20523;-84
2022/12/29 10:19:27;;;;;;;6.23;1.60;;;13.00;1.00;;;;;;5023130;28;20426;-80
2022/12/29 10:22:09;;;;;;;7.57;2.20;;;13.00;1.00;;;;;;4958477;28;20470;-84
2022/12/29 10:24:46;;;;;;;5.60;1.70;;;13.10;1.00;;;;;;4967274;28;20563;-84
2022/12/29 10:27:15;;;;;;;5.03;1.90;;;13.00;1.00;;;;;;4963639;28;20545;-80
2022/12/29 10:29:50;;;;;;;6.03;1.90;;;13.00;1.00;;;;;;4941875;28;20466;-82
2022/12/29 10:32:33;;;;;;;3.87;1.70;;;13.10;1.00;;;;;;4975041;28;20459;-79
2022/12/29 10:35:18;;;;;;;;;;;;;;;;;;;;;
2022/12/29 10:38:13;;;;;;;3.90;1.37;;;13.40;1.00;;;;;;5000290;28;40760;-81
2022/12/29 10:40:51;;;;;;;4.30;1.70;;;13.50;1.00;;;;;;5023068;28;20472;-82
2022/12/29 10:43:25;;;;;;;4.23;1.80;;;13.60;1.00;;;;;;5021843;28;20449;-84
2022/12/29 10:45:58;;;;;;;5.30;1.90;;;13.90;1.00;;;;;;5026089;28;20441;-82
2022/12/29 10:51:23;;;;;;;4.20;1.53;;;15.00;1.00;;;;;;5020117;28;20461;-87
2022/12/29 10:54:03;;;;;;;5.33;2.10;;;15.40;1.00;;;;;;5034743;28;20418;-84
2022/12/29 10:56:34;;;;;;;4.37;2.07;;;15.40;1.00;;;;;;5016943;28;20441;-85
2022/12/29 10:59:15;;;;;;;7.67;2.00;;;15.30;1.00;;;;;;5039955;28;20422;-82
2022/12/29 11:02:02;;;;;;;4.13;1.70;;;15.00;1.00;;;;;;5025367;28;20427;-83
2022/12/29 11:05:05;;;;;;;6.10;1.40;;;14.70;1.00;;;;;;5020321;28;20493;-86
2022/12/29 11:07:52;;;;;;;4.40;1.87;;;14.30;1.00;;;;;;5019019;28;20471;-87
2022/12/29 11:10:55;;;;;;;4.07;1.30;;;14.10;1.00;;;;;;5016803;28;20435;-88
2022/12/29 11:13:56;;;;;;;6.93;1.70;;;13.90;1.00;;;;;;5032144;28;20603;-85
2022/12/29 11:16:35;;;;;;;4.80;1.50;;;13.80;1.00;;;;;;5018769;28;20421;-86
2022/12/29 11:19:32;;;;;;;5.60;1.30;;;13.80;1.00;;;;;;5014738;28;20480;-87
2022/12/29 11:22:24;;;;;;;3.40;1.20;;;13.70;1.00;;;;;;4968114;28;20452;-85
2022/12/29 11:24:54;;;;;;;4.27;1.40;;;13.60;1.00;;;;;;4969953;28;20439;-87
2022/12/29 11:27:33;;;;;;;5.80;1.80;;;13.50;1.00;;;;;;4974344;28;20411;-87
2022/12/29 11:30:32;;;;;;;4.27;1.30;;;13.40;1.00;;;;;;4955763;28;20418;-86
2022/12/29 11:33:06;;;;;;;4.63;1.30;;;13.30;1.00;;;;;;5022224;28;20479;-85
2022/12/29 11:36:08;;;;;;;5.47;2.30;;;13.20;1.00;;;;;;5016830;28;21249;-87
2022/12/29 11:38:45;;;;;;;3.73;1.27;;;13.20;1.00;;;;;;5025740;28;20423;-87
2022/12/29 11:41:56;;;;;;;4.30;1.40;;;13.20;1.00;;;;;;5011827;28;20486;-86
2022/12/29 11:44:38;;;;;;;;;;;;;;;;;;;;;
2022/12/29 11:47:50;;;;;;;3.70;1.30;;;13.00;1.00;;;;;;4925903;29;39011;-87
2022/12/29 12:01:53;;;;;;;3.90;1.40;;;12.70;1.00;;;;;;4990394;28;20465;-85
2022/12/29 12:04:29;;;;;;;5.30;1.40;;;12.70;1.00;;;;;;4991496;28;20440;-84
2022/12/29 12:07:12;;;;;;;3.73;1.17;;;12.70;1.00;;;;;;5018323;28;21262;-83
2022/12/29 12:10:33;;;;;;;3.87;1.00;;;12.50;1.00;;;;;;4997272;28;20442;-86
2022/12/29 12:13:34;;;;;;;3.20;1.10;;;12.10;1.00;;;;;;5011812;28;20488;-88
2022/12/29 12:20:05;;;;;;;3.40;1.07;;;11.40;1.00;;;;;;4997150;28;20403;-84
2022/12/29 13:54:29;;;;;;;2.83;1.67;;;10.20;1.00;;;;;;4775130;29;20492;-83
2022/12/29 13:57:34;;;;;;;3.53;1.70;;;10.20;1.00;;;;;;4886915;28;20233;-87
2022/12/29 14:06:33;;;;;;;3.43;1.50;;;10.30;1.00;;;;;;5231152;22;20413;-86
2022/12/29 14:09:53;;;;;;;;;;;;;;;;;;;;;
2022/12/29 14:15:57;;;;;;;4.33;1.70;;;10.20;1.00;;;;;;5023386;28;20551;-85
2022/12/29 14:18:35;;;;;;;4.13;2.00;;;10.20;1.00;;;;;;5019751;28;20438;-86
2022/12/29 14:21:17;;;;;;;4.07;2.33;;;10.20;1.00;;;;;;5041971;28;20457;-84
2022/12/29 14:23:54;;;;;;;4.30;2.00;;;10.20;1.00;;;;;;5039940;28;20576;-84
2022/12/29 14:26:50;;;;;;;4.30;1.87;;;10.20;1.00;;;;;;5027888;28;21304;-84
2022/12/29 14:29:49;;;;;;;4.40;2.27;;;10.20;1.00;;;;;;5040376;28;20402;-84
2022/12/29 14:32:43;;;;;;;5.03;2.30;;;10.20;1.00;;;;;;5040274;28;20508;-84
2022/12/29 14:35:53;;;;;;;4.97;2.83;;;10.20;1.00;;;;;;5043139;28;20488;-83
2022/12/29 14:38:47;;;;;;;5.10;3.03;;;10.20;1.00;;;;;;5025138;28;20444;-83
2022/12/29 14:41:36;;;;;;;9.13;2.47;;;10.20;1.00;;;;;;5040278;28;20457;-84
2022/12/29 14:44:23;;;;;;;4.33;2.50;;;10.20;1.00;;;;;;5041019;28;20436;-85
2022/12/29 14:47:06;;;;;;;4.50;2.30;;;10.10;1.00;;;;;;5038862;28;20418;-83
2022/12/29 14:49:53;;;;;;;4.80;2.53;;;10.10;1.00;;;;;;5043194;28;20565;-82
2022/12/29 14:55:46;;;;;;;4.13;2.23;;;10.20;1.00;;;;;;5028538;28;20474;-85
2022/12/29 15:01:34;;;;;;;4.03;2.37;;;10.20;1.00;;;;;;5020084;28;20473;-85
2022/12/29 15:04:16;;;;;;;5.73;2.90;;;10.20;1.00;;;;;;5048606;28;20461;-86
2022/12/29 15:06:46;;;;;;;4.83;2.33;;;10.20;1.00;;;;;;5043787;28;20431;-86
2022/12/29 15:09:30;;;;;;;4.17;2.20;;;10.20;1.00;;;;;;5032184;28;20918;-86
2022/12/29 15:12:07;;;;;;;4.43;2.07;;;10.20;1.00;;;;;;5043943;28;20442;-80
2022/12/29 15:14:46;;;;;;;4.43;2.00;;;10.20;1.00;;;;;;5042443;28;20417;-85
2022/12/29 15:17:26;;;;;;;3.77;1.90;;;10.20;1.00;;;;;;5037709;28;20462;-81
2022/12/29 15:20:07;;;;;;;4.73;2.30;;;10.20;1.00;;;;;;5040632;28;20445;-86
2022/12/29 15:22:45;;;;;;;4.87;2.60;;;10.20;1.00;;;;;;5026537;28;20439;-81
2022/12/29 15:25:21;;;;;;;4.30;2.23;;;10.20;1.00;;;;;;5038152;28;20433;-84
2022/12/29 15:28:07;;;;;;;7.60;3.67;;;10.30;1.00;;;;;;5040483;28;20441;-86
2022/12/29 15:30:35;;;;;;;5.13;2.33;;;10.30;1.00;;;;;;5035001;28;20424;-82
2022/12/29 15:33:24;;;;;;;5.93;3.40;;;10.20;1.00;;;;;;5040592;28;20440;-81
2022/12/29 15:38:32;;;;;;;4.20;2.63;;;10.00;1.00;;;;;;4973144;28;20444;-85
2022/12/29 15:41:06;;;;;;;4.60;2.80;;;9.90;1.00;;;;;;4986500;28;20470;-84
2022/12/29 15:43:54;;;;;;;4.60;2.13;;;9.80;1.00;;;;;;4988386;28;20464;-84
2022/12/29 15:46:25;;;;;;;6.13;2.70;;;9.80;1.00;;;;;;4987580;28;20435;-82
2022/12/29 15:49:07;;;;;;;6.40;2.20;;;9.70;1.00;;;;;;5263171;22;20552;-86
2022/12/29 15:51:46;;;;;;;4.97;2.73;;;9.70;1.00;;;;;;5054862;28;20473;-90
2022/12/29 15:54:23;;;;;;;5.20;2.80;;;9.70;1.00;;;;;;5085983;28;20472;-83
2022/12/29 15:56:54;;;;;;;4.03;2.40;;;9.70;1.00;;;;;;5066521;28;20464;-82
2022/12/29 15:59:46;;;;;;;5.10;3.00;;;9.70;1.00;;;;;;5081284;28;20438;-83
2022/12/29 16:02:33;;;;;;;4.73;2.63;;;9.70;1.00;;;;;;5076123;28;20436;-86
2022/12/29 16:05:23;;;;;;;4.40;2.70;;;9.80;1.00;;;;;;5076256;28;20440;-87
2022/12/29 16:07:56;;;;;;;7.27;3.77;;;9.80;1.00;;;;;;5076080;28;20431;-81
2022/12/29 16:10:33;;;;;;;4.67;3.10;;;9.80;1.00;;;;;;5065908;28;20500;-83
2022/12/29 16:13:17;;;;;;;7.27;3.60;;;9.80;1.00;;;;;;5062268;28;20423;-80
2022/12/29 16:15:48;;;;;;;6.33;3.57;;;9.90;1.00;;;;;;5078947;28;20474;-80
2022/12/29 16:18:26;;;;;;;6.47;3.33;;;9.90;1.00;;;;;;5083596;28;20515;-84
2022/12/29 16:20:55;;;;;;;5.63;3.10;;;10.00;1.00;;;;;;5079252;28;21241;-84
2022/12/29 16:23:27;;;;;;;5.27;2.70;;;10.10;1.00;;;;;;5082028;28;20437;-84
2022/12/29 16:26:08;;;;;;;4.47;2.57;;;10.20;1.00;;;;;;5069913;28;20428;-83
2022/12/29 16:28:48;;;;;;;5.10;2.97;;;10.20;1.00;;;;;;5084386;28;20455;-82
2022/12/29 16:31:34;;;;;;;5.73;2.47;;;10.30;1.00;;;;;;5079511;28;20456;-82
2022/12/29 16:34:27;;;;;;;4.53;2.53;;;10.30;1.00;;;;;;5066961;28;20528;-82
2022/12/29 16:36:57;;;;;;;4.57;2.30;;;10.30;1.00;;;;;;5066938;28;20574;-83
2022/12/29 16:39:47;;;;;;;6.50;4.17;;;10.30;1.00;;;;;;5078955;28;20439;-84
2022/12/29 16:42:37;;;;;;;4.50;2.10;;;10.30;1.00;;;;;;5088045;28;20432;-83
2022/12/29 16:45:45;;;;;;;5.40;2.83;;;10.20;1.00;;;;;;5082619;28;20457;-82
2022/12/29 16:48:28;;;;;;;5.97;2.20;;;10.30;1.00;;;;;;5066996;28;20471;-82